sensor_id;sensor_type;location;lat;lon;timestamp;P1;durP1;ratioP1;P2;durP2;ratioP2
18194;SDS011;9223;50.988;3.162;2022-09-09T00:02:18;3.95;;;2.28;;
18194;SDS011;9223;50.988;3.162;2022-09-09T00:08:24;3.72;;;1.77;;
18194;SDS011;9223;50.988;3.162;2022-09-09T00:14:34;5.40;;;2.30;;
18194;SDS011;9223;50.988;3.162;2022-09-09T00:20:41;5.30;;;2.30;;
18194;SDS011;9223;50.988;3.162;2022-09-09T00:26:49;2.47;;;2.20;;
18194;SDS011;9223;50.988;3.162;2022-09-09T00:32:55;3.00;;;1.75;;
18194;SDS011;9223;50.988;3.162;2022-09-09T00:39:02;5.05;;;2.00;;
18194;SDS011;9223;50.988;3.162;2022-09-09T00:45:10;2.08;;;1.30;;
18194;SDS011;9223;50.988;3.162;2022-09-09T00:51:22;4.95;;;1.30;;
18194;SDS011;9223;50.988;3.162;2022-09-09T00:57:28;3.03;;;1.10;;
18194;SDS011;9223;50.988;3.162;2022-09-09T01:03:35;3.03;;;1.15;;
18194;SDS011;9223;50.988;3.162;2022-09-09T01:09:42;3.05;;;1.00;;
18194;SDS011;9223;50.988;3.162;2022-09-09T01:15:48;3.65;;;1.33;;
18194;SDS011;9223;50.988;3.162;2022-09-09T01:22:01;2.63;;;1.30;;
18194;SDS011;9223;50.988;3.162;2022-09-09T01:28:08;3.22;;;1.50;;
18194;SDS011;9223;50.988;3.162;2022-09-09T01:34:13;4.00;;;1.90;;
18194;SDS011;9223;50.988;3.162;2022-09-09T01:40:17;5.43;;;2.17;;
18194;SDS011;9223;50.988;3.162;2022-09-09T01:46:22;3.00;;;1.50;;
18194;SDS011;9223;50.988;3.162;2022-09-09T01:52:26;5.40;;;2.17;;
18194;SDS011;9223;50.988;3.162;2022-09-09T01:58:32;4.45;;;2.55;;
18194;SDS011;9223;50.988;3.162;2022-09-09T02:04:38;4.53;;;1.85;;
18194;SDS011;9223;50.988;3.162;2022-09-09T02:10:44;4.88;;;1.55;;
18194;SDS011;9223;50.988;3.162;2022-09-09T02:16:50;6.20;;;2.17;;
18194;SDS011;9223;50.988;3.162;2022-09-09T02:22:56;4.03;;;1.70;;
18194;SDS011;9223;50.988;3.162;2022-09-09T02:29:01;5.63;;;2.03;;
18194;SDS011;9223;50.988;3.162;2022-09-09T02:35:06;5.45;;;1.90;;
18194;SDS011;9223;50.988;3.162;2022-09-09T02:41:13;6.18;;;1.70;;
18194;SDS011;9223;50.988;3.162;2022-09-09T02:47:19;2.03;;;1.40;;
18194;SDS011;9223;50.988;3.162;2022-09-09T02:53:28;4.18;;;1.85;;
18194;SDS011;9223;50.988;3.162;2022-09-09T02:59:34;6.28;;;1.77;;
18194;SDS011;9223;50.988;3.162;2022-09-09T03:05:37;7.05;;;1.60;;
18194;SDS011;9223;50.988;3.162;2022-09-09T03:11:44;8.43;;;1.50;;
18194;SDS011;9223;50.988;3.162;2022-09-09T03:17:49;6.00;;;2.05;;
18194;SDS011;9223;50.988;3.162;2022-09-09T03:23:52;4.05;;;1.65;;
18194;SDS011;9223;50.988;3.162;2022-09-09T03:29:56;4.90;;;1.58;;
18194;SDS011;9223;50.988;3.162;2022-09-09T03:36:01;6.65;;;2.00;;
18194;SDS011;9223;50.988;3.162;2022-09-09T03:42:04;5.35;;;2.17;;
18194;SDS011;9223;50.988;3.162;2022-09-09T03:48:07;4.68;;;1.70;;
18194;SDS011;9223;50.988;3.162;2022-09-09T03:54:14;3.90;;;2.10;;
18194;SDS011;9223;50.988;3.162;2022-09-09T04:00:18;6.00;;;2.15;;
18194;SDS011;9223;50.988;3.162;2022-09-09T04:06:21;5.35;;;2.30;;
18194;SDS011;9223;50.988;3.162;2022-09-09T04:12:26;5.57;;;2.13;;
18194;SDS011;9223;50.988;3.162;2022-09-09T04:18:29;6.32;;;2.33;;
18194;SDS011;9223;50.988;3.162;2022-09-09T04:24:33;7.07;;;2.90;;
18194;SDS011;9223;50.988;3.162;2022-09-09T04:30:38;6.85;;;2.55;;
18194;SDS011;9223;50.988;3.162;2022-09-09T04:36:42;6.72;;;2.60;;
18194;SDS011;9223;50.988;3.162;2022-09-09T04:42:45;6.22;;;2.45;;
18194;SDS011;9223;50.988;3.162;2022-09-09T04:48:51;3.55;;;2.00;;
18194;SDS011;9223;50.988;3.162;2022-09-09T04:54:55;6.35;;;2.40;;
18194;SDS011;9223;50.988;3.162;2022-09-09T05:01:05;7.05;;;2.50;;
18194;SDS011;9223;50.988;3.162;2022-09-09T05:07:10;7.95;;;2.50;;
18194;SDS011;9223;50.988;3.162;2022-09-09T05:13:14;7.53;;;2.92;;
18194;SDS011;9223;50.988;3.162;2022-09-09T05:19:18;3.92;;;2.13;;
18194;SDS011;9223;50.988;3.162;2022-09-09T05:25:22;7.15;;;2.75;;
18194;SDS011;9223;50.988;3.162;2022-09-09T05:31:29;5.68;;;2.20;;
18194;SDS011;9223;50.988;3.162;2022-09-09T05:37:32;5.20;;;2.13;;
18194;SDS011;9223;50.988;3.162;2022-09-09T05:43:37;9.30;;;2.30;;
18194;SDS011;9223;50.988;3.162;2022-09-09T05:49:41;6.93;;;2.30;;
18194;SDS011;9223;50.988;3.162;2022-09-09T05:55:44;5.70;;;2.30;;
18194;SDS011;9223;50.988;3.162;2022-09-09T06:01:50;6.72;;;2.50;;
18194;SDS011;9223;50.988;3.162;2022-09-09T06:07:53;6.47;;;2.40;;
18194;SDS011;9223;50.988;3.162;2022-09-09T06:13:57;4.47;;;1.85;;
18194;SDS011;9223;50.988;3.162;2022-09-09T06:20:03;7.18;;;2.42;;
18194;SDS011;9223;50.988;3.162;2022-09-09T06:26:07;8.15;;;2.33;;
18194;SDS011;9223;50.988;3.162;2022-09-09T06:32:10;6.55;;;2.50;;
18194;SDS011;9223;50.988;3.162;2022-09-09T06:38:15;5.63;;;2.10;;
18194;SDS011;9223;50.988;3.162;2022-09-09T06:44:20;5.80;;;2.00;;
18194;SDS011;9223;50.988;3.162;2022-09-09T06:50:24;5.70;;;1.60;;
18194;SDS011;9223;50.988;3.162;2022-09-09T06:56:29;4.30;;;1.42;;
18194;SDS011;9223;50.988;3.162;2022-09-09T07:02:33;6.22;;;1.80;;
18194;SDS011;9223;50.988;3.162;2022-09-09T07:08:40;4.70;;;1.80;;
18194;SDS011;9223;50.988;3.162;2022-09-09T07:14:57;5.10;;;1.60;;
18194;SDS011;9223;50.988;3.162;2022-09-09T07:21:01;5.53;;;1.67;;
18194;SDS011;9223;50.988;3.162;2022-09-09T07:27:05;5.82;;;1.58;;
18194;SDS011;9223;50.988;3.162;2022-09-09T07:33:10;3.60;;;1.30;;
18194;SDS011;9223;50.988;3.162;2022-09-09T07:39:13;5.15;;;1.35;;
18194;SDS011;9223;50.988;3.162;2022-09-09T07:45:18;4.85;;;1.90;;
18194;SDS011;9223;50.988;3.162;2022-09-09T07:51:24;3.90;;;1.33;;
18194;SDS011;9223;50.988;3.162;2022-09-09T07:57:27;4.47;;;1.45;;
18194;SDS011;9223;50.988;3.162;2022-09-09T08:03:32;4.20;;;1.48;;
18194;SDS011;9223;50.988;3.162;2022-09-09T08:09:37;2.70;;;1.40;;
18194;SDS011;9223;50.988;3.162;2022-09-09T08:15:40;3.17;;;1.52;;
18194;SDS011;9223;50.988;3.162;2022-09-09T08:21:44;4.32;;;1.20;;
18194;SDS011;9223;50.988;3.162;2022-09-09T08:27:52;4.90;;;1.58;;
18194;SDS011;9223;50.988;3.162;2022-09-09T08:33:56;3.63;;;1.20;;
18194;SDS011;9223;50.988;3.162;2022-09-09T08:40:00;4.20;;;1.42;;
18194;SDS011;9223;50.988;3.162;2022-09-09T08:46:07;2.72;;;1.58;;
18194;SDS011;9223;50.988;3.162;2022-09-09T08:52:15;2.03;;;1.33;;
18194;SDS011;9223;50.988;3.162;2022-09-09T08:58:20;3.70;;;1.40;;
18194;SDS011;9223;50.988;3.162;2022-09-09T09:04:29;1.60;;;1.15;;
18194;SDS011;9223;50.988;3.162;2022-09-09T09:10:39;2.03;;;1.30;;
18194;SDS011;9223;50.988;3.162;2022-09-09T09:16:48;3.72;;;1.00;;
18194;SDS011;9223;50.988;3.162;2022-09-09T09:22:53;2.65;;;1.13;;
18194;SDS011;9223;50.988;3.162;2022-09-09T09:28:58;2.10;;;1.05;;
18194;SDS011;9223;50.988;3.162;2022-09-09T09:35:02;4.45;;;1.17;;
18194;SDS011;9223;50.988;3.162;2022-09-09T09:41:11;2.78;;;0.93;;
18194;SDS011;9223;50.988;3.162;2022-09-09T09:47:15;3.38;;;1.27;;
18194;SDS011;9223;50.988;3.162;2022-09-09T09:53:20;2.33;;;1.10;;
18194;SDS011;9223;50.988;3.162;2022-09-09T09:59:33;3.15;;;1.00;;
18194;SDS011;9223;50.988;3.162;2022-09-09T10:05:44;2.03;;;1.00;;
18194;SDS011;9223;50.988;3.162;2022-09-09T10:11:50;5.38;;;1.08;;
18194;SDS011;9223;50.988;3.162;2022-09-09T10:17:59;2.22;;;1.00;;
18194;SDS011;9223;50.988;3.162;2022-09-09T10:30:28;5.95;;;1.10;;
18194;SDS011;9223;50.988;3.162;2022-09-09T10:36:35;3.28;;;0.90;;
18194;SDS011;9223;50.988;3.162;2022-09-09T10:42:43;3.58;;;1.10;;
18194;SDS011;9223;50.988;3.162;2022-09-09T10:48:53;1.63;;;0.98;;
18194;SDS011;9223;50.988;3.162;2022-09-09T10:55:02;2.92;;;0.93;;
18194;SDS011;9223;50.988;3.162;2022-09-09T11:01:12;2.45;;;1.27;;
18194;SDS011;9223;50.988;3.162;2022-09-09T11:07:21;3.65;;;1.00;;
18194;SDS011;9223;50.988;3.162;2022-09-09T11:13:29;1.85;;;0.93;;
18194;SDS011;9223;50.988;3.162;2022-09-09T11:19:35;2.53;;;0.90;;
18194;SDS011;9223;50.988;3.162;2022-09-09T11:25:39;1.67;;;0.82;;
18194;SDS011;9223;50.988;3.162;2022-09-09T11:31:46;4.60;;;1.05;;
18194;SDS011;9223;50.988;3.162;2022-09-09T11:38:01;4.35;;;1.30;;
18194;SDS011;9223;50.988;3.162;2022-09-09T11:44:09;2.92;;;1.30;;
18194;SDS011;9223;50.988;3.162;2022-09-09T11:50:27;2.08;;;1.00;;
18194;SDS011;9223;50.988;3.162;2022-09-09T11:56:32;2.72;;;1.02;;
18194;SDS011;9223;50.988;3.162;2022-09-09T12:02:36;1.67;;;0.82;;
18194;SDS011;9223;50.988;3.162;2022-09-09T12:08:41;2.20;;;0.95;;
18194;SDS011;9223;50.988;3.162;2022-09-09T12:14:54;2.90;;;1.05;;
18194;SDS011;9223;50.988;3.162;2022-09-09T12:21:00;2.72;;;0.90;;
18194;SDS011;9223;50.988;3.162;2022-09-09T12:27:08;5.30;;;1.52;;
18194;SDS011;9223;50.988;3.162;2022-09-09T12:33:16;2.00;;;1.25;;
18194;SDS011;9223;50.988;3.162;2022-09-09T12:39:22;2.47;;;1.00;;
18194;SDS011;9223;50.988;3.162;2022-09-09T12:45:31;3.88;;;1.50;;
18194;SDS011;9223;50.988;3.162;2022-09-09T12:51:37;2.92;;;1.25;;
18194;SDS011;9223;50.988;3.162;2022-09-09T12:57:41;2.00;;;1.23;;
18194;SDS011;9223;50.988;3.162;2022-09-09T13:03:46;2.38;;;1.52;;
18194;SDS011;9223;50.988;3.162;2022-09-09T13:09:50;5.00;;;1.60;;
18194;SDS011;9223;50.988;3.162;2022-09-09T13:15:54;2.47;;;1.15;;
18194;SDS011;9223;50.988;3.162;2022-09-09T13:21:59;3.15;;;1.40;;
18194;SDS011;9223;50.988;3.162;2022-09-09T13:28:04;2.83;;;1.90;;
18194;SDS011;9223;50.988;3.162;2022-09-09T13:34:12;2.13;;;1.00;;
18194;SDS011;9223;50.988;3.162;2022-09-09T13:40:18;1.83;;;1.27;;
18194;SDS011;9223;50.988;3.162;2022-09-09T13:46:24;2.13;;;1.10;;
18194;SDS011;9223;50.988;3.162;2022-09-09T13:52:28;2.88;;;1.10;;
18194;SDS011;9223;50.988;3.162;2022-09-09T13:58:34;1.90;;;0.95;;
18194;SDS011;9223;50.988;3.162;2022-09-09T14:04:37;1.00;;;0.80;;
18194;SDS011;9223;50.988;3.162;2022-09-09T14:10:42;1.63;;;0.90;;
18194;SDS011;9223;50.988;3.162;2022-09-09T14:16:48;2.00;;;0.85;;
18194;SDS011;9223;50.988;3.162;2022-09-09T14:22:51;1.48;;;0.93;;
18194;SDS011;9223;50.988;3.162;2022-09-09T14:28:55;2.15;;;0.95;;
18194;SDS011;9223;50.988;3.162;2022-09-09T14:35:02;2.90;;;0.80;;
18194;SDS011;9223;50.988;3.162;2022-09-09T14:41:08;2.20;;;0.70;;
18194;SDS011;9223;50.988;3.162;2022-09-09T14:47:12;2.08;;;1.10;;
18194;SDS011;9223;50.988;3.162;2022-09-09T14:53:17;1.65;;;0.90;;
18194;SDS011;9223;50.988;3.162;2022-09-09T14:59:20;4.43;;;0.95;;
18194;SDS011;9223;50.988;3.162;2022-09-09T15:05:24;2.88;;;1.00;;
18194;SDS011;9223;50.988;3.162;2022-09-09T15:11:31;3.45;;;1.75;;
18194;SDS011;9223;50.988;3.162;2022-09-09T15:17:39;3.50;;;1.30;;
18194;SDS011;9223;50.988;3.162;2022-09-09T15:23:43;1.83;;;1.42;;
18194;SDS011;9223;50.988;3.162;2022-09-09T15:29:47;2.95;;;1.77;;
18194;SDS011;9223;50.988;3.162;2022-09-09T15:35:51;3.63;;;2.63;;
18194;SDS011;9223;50.988;3.162;2022-09-09T15:41:55;3.58;;;2.00;;
18194;SDS011;9223;50.988;3.162;2022-09-09T15:48:00;2.20;;;1.98;;
18194;SDS011;9223;50.988;3.162;2022-09-09T15:54:04;2.22;;;1.60;;
18194;SDS011;9223;50.988;3.162;2022-09-09T16:00:12;2.65;;;1.40;;
18194;SDS011;9223;50.988;3.162;2022-09-09T16:06:18;2.63;;;1.70;;
18194;SDS011;9223;50.988;3.162;2022-09-09T16:12:22;3.67;;;1.55;;
18194;SDS011;9223;50.988;3.162;2022-09-09T16:18:32;2.10;;;1.42;;
18194;SDS011;9223;50.988;3.162;2022-09-09T16:24:37;3.70;;;1.65;;
18194;SDS011;9223;50.988;3.162;2022-09-09T16:30:40;2.58;;;1.25;;
18194;SDS011;9223;50.988;3.162;2022-09-09T16:36:44;4.45;;;1.45;;
18194;SDS011;9223;50.988;3.162;2022-09-09T16:42:49;2.85;;;1.00;;
18194;SDS011;9223;50.988;3.162;2022-09-09T16:48:53;3.33;;;1.27;;
18194;SDS011;9223;50.988;3.162;2022-09-09T16:54:59;3.95;;;0.80;;
18194;SDS011;9223;50.988;3.162;2022-09-09T17:01:04;3.47;;;1.40;;
18194;SDS011;9223;50.988;3.162;2022-09-09T17:07:08;2.75;;;1.00;;
18194;SDS011;9223;50.988;3.162;2022-09-09T17:13:11;2.65;;;0.90;;
18194;SDS011;9223;50.988;3.162;2022-09-09T17:19:16;3.35;;;1.15;;
18194;SDS011;9223;50.988;3.162;2022-09-09T17:25:20;2.90;;;0.98;;
18194;SDS011;9223;50.988;3.162;2022-09-09T17:31:24;2.45;;;0.82;;
18194;SDS011;9223;50.988;3.162;2022-09-09T17:37:30;3.40;;;0.88;;
18194;SDS011;9223;50.988;3.162;2022-09-09T17:43:33;3.50;;;1.40;;
18194;SDS011;9223;50.988;3.162;2022-09-09T17:49:38;3.78;;;1.13;;
18194;SDS011;9223;50.988;3.162;2022-09-09T17:55:42;2.60;;;1.25;;
18194;SDS011;9223;50.988;3.162;2022-09-09T18:01:52;3.45;;;1.17;;
18194;SDS011;9223;50.988;3.162;2022-09-09T18:07:56;3.97;;;0.82;;
18194;SDS011;9223;50.988;3.162;2022-09-09T18:14:01;2.38;;;0.88;;
18194;SDS011;9223;50.988;3.162;2022-09-09T18:20:06;2.88;;;0.70;;
18194;SDS011;9223;50.988;3.162;2022-09-09T18:26:10;6.82;;;1.38;;
18194;SDS011;9223;50.988;3.162;2022-09-09T18:32:15;5.78;;;1.50;;
18194;SDS011;9223;50.988;3.162;2022-09-09T18:38:20;4.07;;;1.10;;
18194;SDS011;9223;50.988;3.162;2022-09-09T18:44:26;3.53;;;0.90;;
18194;SDS011;9223;50.988;3.162;2022-09-09T18:50:32;4.40;;;1.30;;
18194;SDS011;9223;50.988;3.162;2022-09-09T18:56:35;4.63;;;1.02;;
18194;SDS011;9223;50.988;3.162;2022-09-09T19:02:39;3.00;;;1.00;;
18194;SDS011;9223;50.988;3.162;2022-09-09T19:08:44;3.22;;;1.38;;
18194;SDS011;9223;50.988;3.162;2022-09-09T19:14:54;5.93;;;1.13;;
18194;SDS011;9223;50.988;3.162;2022-09-09T19:21:07;3.00;;;1.35;;
18194;SDS011;9223;50.988;3.162;2022-09-09T19:27:12;1.60;;;0.75;;
18194;SDS011;9223;50.988;3.162;2022-09-09T19:33:15;3.25;;;1.00;;
18194;SDS011;9223;50.988;3.162;2022-09-09T19:39:19;3.53;;;1.77;;
18194;SDS011;9223;50.988;3.162;2022-09-09T19:45:24;3.90;;;1.00;;
18194;SDS011;9223;50.988;3.162;2022-09-09T19:51:28;4.43;;;1.70;;
18194;SDS011;9223;50.988;3.162;2022-09-09T19:57:31;4.50;;;1.27;;
18194;SDS011;9223;50.988;3.162;2022-09-09T20:03:37;5.45;;;1.10;;
18194;SDS011;9223;50.988;3.162;2022-09-09T20:09:41;2.15;;;1.00;;
18194;SDS011;9223;50.988;3.162;2022-09-09T20:15:45;4.85;;;1.58;;
18194;SDS011;9223;50.988;3.162;2022-09-09T20:21:49;2.55;;;1.10;;
18194;SDS011;9223;50.988;3.162;2022-09-09T20:27:53;3.45;;;1.15;;
18194;SDS011;9223;50.988;3.162;2022-09-09T20:33:57;3.35;;;1.17;;
18194;SDS011;9223;50.988;3.162;2022-09-09T20:40:02;5.82;;;1.20;;
18194;SDS011;9223;50.988;3.162;2022-09-09T20:46:06;5.38;;;1.60;;
18194;SDS011;9223;50.988;3.162;2022-09-09T20:52:11;4.10;;;1.48;;
18194;SDS011;9223;50.988;3.162;2022-09-09T20:58:16;6.93;;;1.70;;
18194;SDS011;9223;50.988;3.162;2022-09-09T21:04:20;3.88;;;1.30;;
18194;SDS011;9223;50.988;3.162;2022-09-09T21:10:23;6.88;;;1.75;;
18194;SDS011;9223;50.988;3.162;2022-09-09T21:16:29;4.80;;;1.60;;
18194;SDS011;9223;50.988;3.162;2022-09-09T21:22:32;3.58;;;1.40;;
18194;SDS011;9223;50.988;3.162;2022-09-09T21:28:36;3.55;;;1.30;;
18194;SDS011;9223;50.988;3.162;2022-09-09T21:34:41;4.60;;;1.52;;
18194;SDS011;9223;50.988;3.162;2022-09-09T21:40:46;4.95;;;1.75;;
18194;SDS011;9223;50.988;3.162;2022-09-09T21:46:50;3.65;;;1.40;;
18194;SDS011;9223;50.988;3.162;2022-09-09T21:52:55;4.30;;;1.10;;
18194;SDS011;9223;50.988;3.162;2022-09-09T21:58:58;3.50;;;1.40;;
18194;SDS011;9223;50.988;3.162;2022-09-09T22:05:04;2.70;;;1.20;;
18194;SDS011;9223;50.988;3.162;2022-09-09T22:11:10;4.32;;;2.05;;
18194;SDS011;9223;50.988;3.162;2022-09-09T22:17:14;3.47;;;1.50;;
18194;SDS011;9223;50.988;3.162;2022-09-09T22:23:17;4.57;;;1.30;;
18194;SDS011;9223;50.988;3.162;2022-09-09T22:29:23;6.28;;;1.88;;
18194;SDS011;9223;50.988;3.162;2022-09-09T22:35:27;5.72;;;1.75;;
18194;SDS011;9223;50.988;3.162;2022-09-09T22:41:30;3.42;;;1.75;;
18194;SDS011;9223;50.988;3.162;2022-09-09T22:47:35;7.13;;;2.22;;
18194;SDS011;9223;50.988;3.162;2022-09-09T22:53:40;3.13;;;1.55;;
18194;SDS011;9223;50.988;3.162;2022-09-09T22:59:45;3.75;;;1.52;;
18194;SDS011;9223;50.988;3.162;2022-09-09T23:05:53;5.40;;;1.73;;
18194;SDS011;9223;50.988;3.162;2022-09-09T23:11:57;5.35;;;2.28;;
18194;SDS011;9223;50.988;3.162;2022-09-09T23:18:01;4.75;;;2.10;;
18194;SDS011;9223;50.988;3.162;2022-09-09T23:24:07;8.25;;;2.35;;
18194;SDS011;9223;50.988;3.162;2022-09-09T23:30:10;4.88;;;2.22;;
18194;SDS011;9223;50.988;3.162;2022-09-09T23:36:19;4.72;;;2.33;;
18194;SDS011;9223;50.988;3.162;2022-09-09T23:42:24;4.60;;;2.60;;
18194;SDS011;9223;50.988;3.162;2022-09-09T23:48:28;6.47;;;2.33;;
18194;SDS011;9223;50.988;3.162;2022-09-09T23:54:33;2.97;;;1.35;;
